Time;durP1;ratioP1;P1;durP2;ratioP2;P2;SDS_P1;SDS_P2;PMS_P1;PMS_P2;Temp;Humidity;BMP_temperature;BMP_pressure;BME280_temperature;BME280_humidity;BME280_pressure;Samples;Min_cycle;Max_cycle;Signal;HPM_P1;HPM_P2
2024/02/07 00:02:33;;;;;;;23.30;3.30;;;;;;;14.99;46.05;97452.11;67883;1276;1016728;-70
2024/02/07 00:05:35;;;;;;;12.70;3.10;;;;;;;14.97;46.23;97452.60;67878;1276;1016847;-69
2024/02/07 00:08:38;;;;;;;14.60;3.40;;;;;;;14.95;46.47;97449.13;67870;1276;1016490;-69
2024/02/07 00:11:41;;;;;;;12.60;2.70;;;;;;;14.85;46.49;97446.58;67884;1276;1015919;-69
2024/02/07 00:14:43;;;;;;;11.80;2.70;;;;;;;14.86;46.76;97441.57;67904;1276;1018549;-69
2024/02/07 00:17:46;;;;;;;11.80;2.70;;;;;;;14.80;46.82;97435.48;67872;1276;1016270;-69
2024/02/07 00:20:49;;;;;;;11.60;2.90;;;;;;;14.75;46.83;97428.95;67909;1276;1016499;-69
2024/02/07 00:23:52;;;;;;;13.30;3.10;;;;;;;14.79;46.62;97432.02;67850;1276;1016502;-69
2024/02/07 00:26:55;;;;;;;15.60;3.20;;;;;;;14.73;46.82;97436.53;67919;1260;1016449;-69
2024/02/07 00:29:57;;;;;;;12.90;3.10;;;;;;;14.67;47.33;97422.83;67878;1276;1016344;-69
2024/02/07 00:33:00;;;;;;;14.90;3.00;;;;;;;14.56;47.31;97418.30;67859;1276;1015884;-69
2024/02/07 00:36:03;;;;;;;;;;;;;;;14.63;47.00;97419.73;67939;1276;1017261;-69
2024/02/07 00:39:06;;;;;;;12.30;3.00;;;;;;;14.68;47.08;97413.48;67890;1276;1016278;-70
2024/02/07 00:42:09;;;;;;;12.60;3.10;;;;;;;14.62;47.40;97402.65;67883;1276;1016834;-66
2024/02/07 00:45:12;;;;;;;10.40;2.60;;;;;;;14.58;47.83;97382.10;67872;1276;1016477;-69
2024/02/07 00:48:14;;;;;;;13.70;2.70;;;;;;;14.48;47.37;97397.07;67868;1276;1019675;-70
2024/02/07 00:51:18;;;;;;;;;;;;;;;14.57;47.44;97396.61;67919;1276;1016506;-69
2024/02/07 00:54:21;;;;;;;17.10;3.10;;;;;;;14.63;47.61;97382.88;67856;1276;1015953;-69
2024/02/07 00:57:24;;;;;;;10.50;2.90;;;;;;;14.55;47.58;97384.67;67850;1276;1018170;-69
2024/02/07 01:00:27;;;;;;;13.50;2.60;;;;;;;14.46;47.71;97382.73;67865;1276;1016282;-69
2024/02/07 01:03:29;;;;;;;16.80;3.30;;;;;;;14.72;47.36;97393.67;67907;1276;1016564;-69
2024/02/07 01:06:32;;;;;;;;;;;;;;;14.68;47.52;97371.81;67884;1276;1016374;-69
2024/02/07 01:09:35;;;;;;;18.40;3.30;;;;;;;14.71;47.01;97386.41;67866;1276;1016626;-69
2024/02/07 01:12:37;;;;;;;11.90;2.80;;;;;;;14.76;47.15;97374.11;67904;1276;1016122;-70
2024/02/07 01:15:39;;;;;;;14.20;3.00;;;;;;;14.82;46.91;97369.95;67925;1276;1017239;-69
2024/02/07 01:18:42;;;;;;;11.20;2.70;;;;;;;14.84;46.89;97388.27;67853;1276;1018577;-67
2024/02/07 01:21:45;;;;;;;13.40;3.00;;;;;;;14.81;46.85;97369.94;67869;1276;1018301;-68
2024/02/07 01:24:47;;;;;;;17.40;3.00;;;;;;;14.80;47.05;97362.48;67907;1276;1016425;-70
2024/02/07 01:27:50;;;;;;;9.80;2.30;;;;;;;14.82;47.13;97366.67;67928;1276;1016137;-69
2024/02/07 01:30:53;;;;;;;10.50;2.60;;;;;;;14.76;47.21;97372.05;67873;1276;1016439;-69
2024/02/07 01:33:56;;;;;;;10.20;2.40;;;;;;;14.75;47.14;97369.12;67915;1253;1016287;-68
2024/02/07 01:37:00;;;;;;;11.50;2.70;;;;;;;14.83;46.97;97368.17;67926;1276;1016240;-69
2024/02/07 01:40:02;;;;;;;10.80;2.40;;;;;;;14.91;47.02;97350.77;67890;1276;1016178;-69
2024/02/07 01:43:06;;;;;;;10.70;2.50;;;;;;;14.87;47.10;97334.81;67924;1276;1016322;-69
2024/02/07 01:46:08;;;;;;;;;;;;;;;14.76;46.97;97339.63;67880;1276;1016088;-69
2024/02/07 01:49:11;;;;;;;8.80;2.50;;;;;;;14.85;46.72;97345.21;67884;1276;1016453;-69
2024/02/07 01:52:13;;;;;;;11.20;2.40;;;;;;;14.89;46.84;97336.23;67873;1276;1016505;-69
2024/02/07 01:55:16;;;;;;;14.50;2.50;;;;;;;14.86;46.58;97350.20;67910;1276;1016424;-68
2024/02/07 01:58:18;;;;;;;11.90;2.90;;;;;;;14.86;46.97;97326.15;67899;1276;1017774;-69
2024/02/07 02:01:21;;;;;;;11.30;2.50;;;;;;;14.89;46.91;97313.70;67872;1276;1016427;-69
2024/02/07 02:04:23;;;;;;;9.50;2.90;;;;;;;14.74;47.24;97333.29;67856;1276;1016423;-69
2024/02/07 02:07:26;;;;;;;12.90;2.50;;;;;;;14.88;46.84;97298.15;67914;1276;1016433;-69
2024/02/07 02:10:28;;;;;;;13.80;2.50;;;;;;;15.02;46.47;97330.69;67880;1276;1016279;-70
2024/02/07 02:13:32;;;;;;;10.40;2.50;;;;;;;15.05;46.51;97321.42;67849;1276;1016504;-67
2024/02/07 02:16:35;;;;;;;10.70;2.20;;;;;;;15.03;46.71;97313.63;67895;1276;1015896;-69
2024/02/07 02:19:38;;;;;;;9.70;2.30;;;;;;;14.91;46.84;97297.27;67898;1253;1016440;-69
2024/02/07 02:22:45;;;;;;;10.00;2.30;;;;;;;14.91;46.91;97304.69;67919;1276;1016422;-69
2024/02/07 02:25:49;;;;;;;11.30;2.40;;;;;;;14.89;46.93;97287.81;67897;1276;1016421;-69
2024/02/07 02:28:52;;;;;;;8.70;2.30;;;;;;;14.88;46.81;97295.50;67852;1276;1016117;-69
2024/02/07 02:31:57;;;;;;;11.80;2.30;;;;;;;14.84;46.80;97280.77;67904;1276;1016502;-67
2024/02/07 02:34:59;;;;;;;;;;;;;;;14.79;47.06;97294.58;67872;1276;1016556;-68
2024/02/07 02:38:02;;;;;;;9.40;2.30;;;;;;;14.83;47.17;97290.04;67889;1276;1016421;-69
2024/02/07 02:41:07;;;;;;;15.00;2.80;;;;;;;14.70;47.27;97283.13;67893;1276;1016418;-69
2024/02/07 02:44:10;;;;;;;11.10;2.40;;;;;;;14.66;47.47;97284.30;67865;1276;1016384;-66
2024/02/07 02:47:14;;;;;;;10.20;2.20;;;;;;;14.82;47.21;97281.95;67894;1276;1016260;-69
2024/02/07 02:50:17;;;;;;;9.70;2.30;;;;;;;14.74;47.13;97268.52;67890;1276;1016400;-69
2024/02/07 02:53:19;;;;;;;10.80;2.50;;;;;;;14.95;46.54;97257.30;67898;1276;1018151;-69
2024/02/07 02:56:22;;;;;;;9.20;2.30;;;;;;;14.99;46.71;97259.45;67854;1276;1016436;-69
2024/02/07 02:59:25;;;;;;;11.70;2.50;;;;;;;15.02;46.82;97248.15;67887;1276;1016436;-69
2024/02/07 03:02:27;;;;;;;9.90;2.60;;;;;;;14.98;46.36;97259.77;67846;1276;1016348;-70
2024/02/07 03:05:45;;;;;;;12.90;2.40;;;;;;;14.88;46.96;97265.18;67867;1276;1017024;-70
2024/02/07 03:09:05;;;;;;;9.60;2.20;;;;;;;14.77;47.49;97249.96;67856;1276;1016394;-68
2024/02/07 03:12:08;;;;;;;14.00;2.50;;;;;;;14.75;47.70;97256.69;67845;1276;1016231;-69
2024/02/07 03:15:11;;;;;;;11.50;2.50;;;;;;;14.86;48.04;97242.48;67875;1276;1016845;-70
2024/02/07 03:18:13;;;;;;;10.00;2.50;;;;;;;14.87;48.29;97236.80;67893;1276;1016458;-68
2024/02/07 03:21:16;;;;;;;18.70;3.90;;;;;;;14.65;49.16;97246.27;67855;1276;1016471;-69
2024/02/07 03:24:18;;;;;;;12.30;2.70;;;;;;;14.55;49.71;97246.77;67823;1276;1016361;-69
2024/02/07 03:27:21;;;;;;;14.60;3.10;;;;;;;14.44;50.00;97248.05;67876;1276;1015993;-69
2024/02/07 03:30:24;;;;;;;14.80;2.90;;;;;;;14.38;50.35;97259.73;67838;1276;1016412;-68
2024/02/07 03:33:28;;;;;;;10.20;2.30;;;;;;;14.25;50.94;97250.82;67839;1276;1016320;-69
2024/02/07 03:36:31;;;;;;;13.10;2.70;;;;;;;14.17;51.43;97244.73;67885;1276;1017432;-67
2024/02/07 03:39:35;;;;;;;14.10;2.90;;;;;;;14.19;52.02;97242.84;67915;1276;1016358;-67
2024/02/07 03:42:38;;;;;;;12.60;2.80;;;;;;;14.16;52.20;97243.45;67839;1276;1016319;-66
2024/02/07 03:45:42;;;;;;;15.70;2.90;;;;;;;14.10;52.47;97240.20;67829;1276;1016153;-67
2024/02/07 03:48:45;;;;;;;9.90;2.70;;;;;;;14.07;53.44;97240.35;67883;1276;1016481;-69
2024/02/07 03:51:48;;;;;;;;;;;;;;;14.03;53.73;97232.45;67859;1276;1016357;-69
2024/02/07 03:54:50;;;;;;;14.80;3.10;;;;;;;13.97;54.54;97235.17;67870;1276;1016226;-67
2024/02/07 03:57:53;;;;;;;14.10;2.40;;;;;;;13.93;54.74;97223.32;67907;1276;1016608;-69
2024/02/07 04:00:55;;;;;;;10.80;2.60;;;;;;;13.81;55.27;97212.85;67910;1276;1016406;-69
2024/02/07 04:03:58;;;;;;;12.30;2.70;;;;;;;13.66;56.06;97210.16;67850;1276;1016331;-69
2024/02/07 04:07:00;;;;;;;13.90;2.80;;;;;;;13.69;55.89;97202.62;67861;1276;1016296;-67
2024/02/07 04:10:03;;;;;;;11.00;2.40;;;;;;;13.61;56.37;97203.58;67913;1276;1016957;-69
2024/02/07 05:16:10;;;;;;;10.30;2.80;;;;;;;14.19;52.06;97138.71;67850;1276;1016458;-67
2024/02/07 05:19:12;;;;;;;11.80;2.30;;;;;;;14.19;51.85;97120.83;67861;1276;1019038;-69
2024/02/07 05:22:16;;;;;;;9.80;2.40;;;;;;;14.28;51.31;97130.42;67897;1276;1018924;-70
2024/02/07 05:25:19;;;;;;;9.10;2.10;;;;;;;14.35;51.76;97134.27;67891;1276;1016446;-69
2024/02/07 05:28:22;;;;;;;14.00;2.60;;;;;;;14.22;52.24;97140.41;67916;1276;1016502;-68
2024/02/07 05:31:24;;;;;;;11.60;2.20;;;;;;;14.11;52.68;97118.52;67884;1276;1016246;-70
2024/02/07 05:34:27;;;;;;;10.90;2.50;;;;;;;14.05;52.05;97130.05;67851;1276;1016202;-70
2024/02/07 05:37:30;;;;;;;11.90;2.50;;;;;;;14.13;52.82;97118.65;67883;1276;1016345;-70
2024/02/07 05:40:32;;;;;;;13.20;2.80;;;;;;;14.04;53.28;97120.02;67846;1276;1016117;-69
2024/02/07 05:43:35;;;;;;;11.80;3.00;;;;;;;13.94;53.78;97120.08;67843;1276;1016580;-70
2024/02/07 05:46:37;;;;;;;11.30;2.50;;;;;;;14.01;53.78;97117.77;65332;1276;6372953;-70
2024/02/07 05:49:40;;;;;;;9.20;2.40;;;;;;;14.07;53.52;97126.06;67880;1276;1019134;-68
2024/02/07 05:52:42;;;;;;;10.20;2.70;;;;;;;13.93;54.31;97115.09;67864;1276;1016279;-69
2024/02/07 05:55:45;;;;;;;13.30;2.60;;;;;;;13.83;54.83;97100.36;67828;1276;1016440;-70
2024/02/07 05:58:51;;;;;;;11.90;2.10;;;;;;;13.99;54.28;97117.95;67874;1276;1016971;-69
2024/02/07 06:01:53;;;;;;;10.90;2.40;;;;;;;13.97;54.64;97120.48;67919;1276;1016479;-66
2024/02/07 06:05:03;;;;;;;17.60;3.00;;;;;;;13.98;54.93;97111.92;67901;1276;1016428;-69
2024/02/07 06:08:08;;;;;;;11.80;2.50;;;;;;;13.88;55.24;97107.48;67825;1276;1016330;-70
2024/02/07 06:11:11;;;;;;;11.50;2.10;;;;;;;13.82;55.20;97116.48;67852;1276;1018209;-68
2024/02/07 06:14:14;;;;;;;10.50;2.40;;;;;;;13.86;55.30;97103.30;67897;1276;1017326;-70
2024/02/07 06:17:17;;;;;;;13.90;3.30;;;;;;;13.78;55.65;97100.25;67874;1276;1016533;-70
2024/02/07 06:20:19;;;;;;;10.70;2.40;;;;;;;13.85;55.44;97105.79;67880;1276;1018215;-69
2024/02/07 06:23:22;;;;;;;16.50;2.80;;;;;;;13.93;55.16;97093.27;67883;1276;1016424;-69
2024/02/07 06:26:24;;;;;;;10.20;2.60;;;;;;;13.91;55.21;97095.09;67909;1276;1016479;-70
2024/02/07 06:29:27;;;;;;;14.60;3.50;;;;;;;13.92;55.60;97097.06;67875;1276;1016624;-70
2024/02/07 06:32:29;;;;;;;18.20;3.80;;;;;;;13.85;55.52;97085.07;67836;1276;1016384;-69
2024/02/07 06:35:32;;;;;;;20.00;3.60;;;;;;;13.81;55.82;97100.66;67886;1276;1016431;-67
2024/02/07 06:38:34;;;;;;;12.60;2.70;;;;;;;13.78;56.32;97104.30;67886;1276;1016187;-69
2024/02/07 06:41:36;;;;;;;17.50;3.60;;;;;;;13.80;56.39;97107.96;67858;1276;1016656;-70
2024/02/07 06:44:39;;;;;;;12.20;2.70;;;;;;;13.72;56.64;97104.52;67855;1276;1016333;-70
2024/02/07 06:47:42;;;;;;;13.40;3.00;;;;;;;13.83;56.47;97094.75;67827;1276;1016505;-70
2024/02/07 06:50:44;;;;;;;22.90;3.80;;;;;;;13.74;57.11;97105.77;67888;1276;1016993;-70
2024/02/07 06:53:47;;;;;;;16.70;3.40;;;;;;;13.57;58.25;97116.22;67880;1276;1016396;-70
2024/02/07 06:56:49;;;;;;;12.70;3.50;;;;;;;13.65;58.25;97105.92;67854;1276;1016278;-70
2024/02/07 06:59:52;;;;;;;17.50;3.60;;;;;;;13.56;58.61;97094.33;67872;1276;1018626;-69
2024/02/07 07:02:54;;;;;;;16.00;3.70;;;;;;;13.68;57.82;97087.67;67900;1276;1016466;-69
2024/02/07 07:05:57;;;;;;;;;;;;;;;13.67;57.92;97081.67;67914;1276;1016071;-69
2024/02/07 07:08:59;;;;;;;13.90;3.30;;;;;;;13.57;58.13;97101.58;67873;1276;1016406;-70
2024/02/07 07:12:02;;;;;;;14.50;3.60;;;;;;;13.59;58.39;97098.66;67862;1276;1016402;-70
2024/02/07 07:15:04;;;;;;;13.00;3.10;;;;;;;13.64;58.31;97094.05;67914;1276;1016489;-70
2024/02/07 07:18:07;;;;;;;17.20;3.10;;;;;;;13.60;58.35;97091.28;67916;1276;1017805;-70
2024/02/07 07:21:09;;;;;;;17.10;3.60;;;;;;;13.81;57.54;97093.71;67855;1276;1016195;-69
2024/02/07 07:24:12;;;;;;;13.90;3.30;;;;;;;13.98;57.35;97091.17;67858;1276;1016530;-70
2024/02/07 07:27:14;;;;;;;14.00;2.90;;;;;;;13.96;57.21;97075.35;67870;1276;1016294;-67
2024/02/07 07:30:17;;;;;;;19.00;3.90;;;;;;;14.00;56.95;97071.64;67885;1276;1015983;-69
2024/02/07 07:33:20;;;;;;;17.50;3.50;;;;;;;14.15;56.60;97077.60;67845;1276;1016393;-70
2024/02/07 07:36:26;;;;;;;11.50;3.70;;;;;;;14.25;56.34;97100.55;67899;1276;1016367;-67
2024/02/07 07:39:30;;;;;;;19.20;3.60;;;;;;;14.22;55.93;97094.10;67856;1276;1016821;-69
2024/02/07 07:42:33;;;;;;;11.50;2.90;;;;;;;14.25;55.50;97105.98;67900;1276;1016403;-65
2024/02/07 07:45:35;;;;;;;11.60;2.80;;;;;;;14.25;55.71;97091.86;67911;1276;1016526;-69
2024/02/07 07:48:38;;;;;;;15.50;2.90;;;;;;;14.20;55.15;97091.34;67866;1276;1016499;-69
2024/02/07 07:51:40;;;;;;;11.00;2.60;;;;;;;14.38;55.02;97081.80;67886;1276;1016416;-70
2024/02/07 07:54:43;;;;;;;15.90;3.10;;;;;;;14.38;54.74;97085.63;67900;1276;1016367;-69
2024/02/07 07:57:45;;;;;;;11.80;2.70;;;;;;;14.42;54.78;97088.27;67898;1276;1017031;-70
2024/02/07 08:00:48;;;;;;;12.70;3.20;;;;;;;14.58;54.29;97089.69;67867;1276;1016370;-70
2024/02/07 08:03:50;;;;;;;11.90;2.60;;;;;;;14.71;53.44;97081.31;67873;1276;1016419;-70
2024/02/07 08:06:53;;;;;;;11.90;3.00;;;;;;;14.75;54.05;97074.44;67860;1276;1019710;-68
2024/02/07 08:09:55;;;;;;;17.10;3.60;;;;;;;14.78;53.79;97080.45;67905;1276;1018251;-68
2024/02/07 08:12:58;;;;;;;12.00;2.80;;;;;;;14.73;53.16;97078.16;67912;1276;1016303;-70
2024/02/07 08:16:01;;;;;;;12.90;3.20;;;;;;;14.76;53.01;97084.48;67898;1276;1016485;-70
2024/02/07 08:19:03;;;;;;;20.10;3.40;;;;;;;14.65;53.20;97073.67;67856;1276;1016686;-67
2024/02/07 08:22:06;;;;;;;16.30;3.40;;;;;;;14.70;54.34;97083.00;67904;1276;1016469;-69
2024/02/07 08:25:08;;;;;;;14.00;3.10;;;;;;;14.78;53.29;97098.71;67885;1276;1019248;-69
2024/02/07 08:28:11;;;;;;;15.40;4.70;;;;;;;15.04;52.98;97065.21;67864;1276;1016397;-69
2024/02/07 08:31:14;;;;;;;18.20;4.10;;;;;;;14.98;52.06;97082.94;67888;1276;1016056;-70
2024/02/07 08:34:18;;;;;;;16.00;3.70;;;;;;;14.99;52.12;97080.02;67922;1276;1016053;-70
2024/02/07 08:37:24;;;;;;;11.90;3.00;;;;;;;14.91;52.48;97067.29;67907;1276;1016472;-69
2024/02/07 08:40:27;;;;;;;10.80;2.80;;;;;;;14.88;52.03;97060.19;67860;1276;1016443;-69
2024/02/07 08:43:29;;;;;;;10.60;2.50;;;;;;;14.92;52.56;97077.89;67862;1276;1016472;-69
2024/02/07 08:46:32;;;;;;;;;;;;;;;14.85;52.43;97072.42;67925;1276;1016178;-69
2024/02/07 08:49:34;;;;;;;11.80;2.70;;;;;;;14.85;52.51;97070.35;67905;1276;1015769;-69
2024/02/07 08:52:37;;;;;;;10.80;2.80;;;;;;;14.84;52.62;97067.45;67884;1276;1016472;-69
2024/02/07 08:55:39;;;;;;;10.60;2.80;;;;;;;14.96;52.61;97050.92;67885;1276;1018878;-69
2024/02/07 08:58:42;;;;;;;11.90;2.40;;;;;;;14.92;52.11;97041.27;67918;1276;1018057;-69
2024/02/07 09:01:44;;;;;;;12.90;2.40;;;;;;;14.83;52.55;97068.34;67937;1276;1016316;-70
2024/02/07 09:04:47;;;;;;;11.60;2.50;;;;;;;14.75;52.92;97041.17;67895;1276;1016187;-70
2024/02/07 09:07:49;;;;;;;11.40;2.50;;;;;;;14.72;52.43;97026.57;67875;1276;1018040;-69
2024/02/07 09:10:52;;;;;;;12.50;3.00;;;;;;;14.75;53.21;97043.05;67890;1276;1016481;-70
2024/02/07 09:13:54;;;;;;;15.00;3.60;;;;;;;14.77;52.80;97052.36;67917;1276;1015989;-69
2024/02/07 09:16:57;;;;;;;20.40;3.20;;;;;;;14.90;52.58;97040.63;67907;1276;1016454;-69
2024/02/07 09:19:59;;;;;;;18.20;3.70;;;;;;;14.82;52.35;97042.02;67907;1276;1016501;-69
2024/02/07 09:23:02;;;;;;;11.70;2.50;;;;;;;14.83;52.01;97049.33;67879;1276;1016499;-69
2024/02/07 09:26:04;;;;;;;6.60;2.10;;;;;;;14.87;51.91;97038.48;67911;1276;1016506;-70
2024/02/07 09:29:07;;;;;;;12.40;2.40;;;;;;;14.86;51.68;97041.95;67884;1276;1018093;-70
2024/02/07 09:32:09;;;;;;;13.00;3.00;;;;;;;14.85;51.96;97037.45;67861;1276;1016012;-69
2024/02/07 09:35:12;;;;;;;13.50;2.80;;;;;;;14.63;52.28;97052.06;67919;1276;1016736;-68
2024/02/07 09:38:14;;;;;;;11.70;2.70;;;;;;;14.53;52.63;97031.16;67935;1276;1016486;-69
2024/02/07 09:41:17;;;;;;;12.80;2.70;;;;;;;14.68;52.59;97045.02;67902;1276;1016894;-70
2024/02/07 09:44:22;;;;;;;13.00;2.80;;;;;;;14.64;52.20;97025.95;67921;1276;1016043;-70
2024/02/07 09:47:25;;;;;;;16.90;2.70;;;;;;;14.62;52.19;97034.08;67932;1276;1016454;-69
2024/02/07 09:50:28;;;;;;;10.60;2.60;;;;;;;14.55;52.58;97037.30;67870;1276;1016457;-69
2024/02/07 09:53:30;;;;;;;13.80;3.30;;;;;;;14.63;52.38;97043.09;67922;1276;1015776;-69
2024/02/07 09:56:33;;;;;;;12.00;2.80;;;;;;;14.66;52.67;97047.91;67904;1276;1016006;-67
2024/02/07 09:59:35;;;;;;;12.70;2.70;;;;;;;14.63;52.19;97040.29;67921;1276;1016262;-70
2024/02/07 10:02:38;;;;;;;11.30;2.80;;;;;;;14.58;52.63;97053.46;67894;1276;1016383;-70
2024/02/07 10:05:40;;;;;;;13.10;2.70;;;;;;;14.53;52.12;97052.04;67884;1276;1016283;-69
2024/02/07 10:08:43;;;;;;;11.60;3.00;;;;;;;14.61;52.31;97048.20;67934;1276;1016306;-70
2024/02/07 10:11:46;;;;;;;13.70;3.40;;;;;;;14.71;51.62;97057.08;67936;1276;1016308;-69
2024/02/07 10:14:48;;;;;;;19.40;4.70;;;;;;;14.67;51.61;97037.94;67873;1276;1017105;-70
2024/02/07 10:17:51;;;;;;;17.00;3.30;;;;;;;14.68;51.70;97049.29;67872;1276;1016478;-68
2024/02/07 10:20:53;;;;;;;11.60;2.30;;;;;;;14.69;51.51;97042.65;67935;1276;1016152;-69
2024/02/07 10:23:56;;;;;;;11.40;2.40;;;;;;;14.74;51.42;97032.50;67925;1276;1016440;-62
2024/02/07 10:26:58;;;;;;;11.20;2.70;;;;;;;14.82;50.81;97046.74;67906;1276;1016449;-69
2024/02/07 10:30:01;;;;;;;;;;;;;;;14.84;51.03;97059.56;67891;1276;1016458;-69
2024/02/07 10:33:04;;;;;;;9.10;2.20;;;;;;;14.84;51.36;97047.48;67917;1276;1018849;-69
2024/02/07 10:36:08;;;;;;;12.30;2.70;;;;;;;14.74;51.45;97067.66;67931;1276;1016184;-70
2024/02/07 10:39:10;;;;;;;13.60;2.90;;;;;;;14.78;52.25;97044.41;67886;1276;1016321;-70
2024/02/07 10:42:13;;;;;;;11.60;2.90;;;;;;;14.81;52.22;97056.89;67895;1276;1016491;-70
2024/02/07 10:45:15;;;;;;;12.40;2.70;;;;;;;14.62;52.92;97061.86;67865;1276;1016506;-69
2024/02/07 10:48:18;;;;;;;12.10;2.70;;;;;;;14.69;52.52;97050.73;67915;1276;1016426;-69
2024/02/07 10:51:20;;;;;;;9.40;2.60;;;;;;;14.67;53.01;97078.30;67931;1276;1016259;-69
2024/02/07 10:54:23;;;;;;;;;;;;;;;14.89;53.27;97063.23;67901;1276;1016095;-70
2024/02/07 10:57:27;;;;;;;12.60;2.80;;;;;;;14.92;53.03;97068.98;67892;1276;1015909;-70
2024/02/07 11:00:30;;;;;;;10.40;2.50;;;;;;;14.91;53.78;97064.29;67896;1276;1016491;-70
2024/02/07 11:03:33;;;;;;;13.70;3.10;;;;;;;14.68;54.15;97091.21;67945;1276;1016029;-70
2024/02/07 11:06:36;;;;;;;12.60;2.50;;;;;;;14.51;56.07;97103.93;67875;1276;1016303;-70
2024/02/07 11:09:38;;;;;;;3.50;1.40;;;;;;;13.85;59.22;97142.70;67917;1276;1016259;-69
2024/02/07 11:12:41;;;;;;;;;;;;;;;13.03;59.36;97156.88;67931;1276;1019910;-69
2024/02/07 11:15:43;;;;;;;9.00;2.10;;;;;;;12.50;60.30;97153.90;67901;1276;1016459;-69
2024/02/07 11:18:46;;;;;;;7.20;2.20;;;;;;;12.26;60.11;97172.37;67899;1276;1016253;-70
2024/02/07 11:21:49;;;;;;;9.30;2.20;;;;;;;11.94;61.41;97185.42;67912;1276;1016242;-70
2024/02/07 11:24:51;;;;;;;7.10;2.40;;;;;;;11.70;62.22;97193.79;67950;1276;1016339;-70
2024/02/07 11:27:55;;;;;;;9.80;1.80;;;;;;;11.54;62.43;97194.29;67886;1276;1016063;-70
2024/02/07 11:31:00;;;;;;;6.00;2.00;;;;;;;11.24;62.87;97202.92;67878;1276;1016374;-70
2024/02/07 11:34:03;;;;;;;6.80;1.30;;;;;;;11.07;63.36;97209.00;67919;1276;1016444;-70
2024/02/07 11:37:06;;;;;;;10.10;2.10;;;;;;;10.95;63.99;97208.30;67918;1276;1016482;-70
2024/02/07 11:40:09;;;;;;;4.90;1.60;;;;;;;10.90;65.35;97220.14;67897;1276;1016423;-70
2024/02/07 11:43:11;;;;;;;4.50;1.30;;;;;;;10.82;65.69;97221.73;67947;1276;1016256;-70
2024/02/07 11:46:14;;;;;;;;;;;;;;;10.71;66.55;97228.03;67914;1276;1016461;-70
2024/02/07 11:49:16;;;;;;;4.40;1.20;;;;;;;10.60;67.29;97247.32;67902;1276;1016034;-70
2024/02/07 11:52:19;;;;;;;6.80;1.70;;;;;;;10.45;68.18;97250.27;67908;1276;1018905;-70
2024/02/07 11:55:21;;;;;;;4.80;1.30;;;;;;;10.49;68.18;97234.17;67939;1276;1016435;-70
2024/02/07 11:58:25;;;;;;;4.60;1.10;;;;;;;10.54;66.72;97237.25;67858;1276;1016192;-70
2024/02/07 12:01:28;;;;;;;2.10;1.10;;;;;;;10.32;68.43;97247.45;67932;1276;1016490;-70
2024/02/07 12:04:30;;;;;;;3.60;0.90;;;;;;;10.29;68.22;97234.96;67881;1276;1016446;-70
2024/02/07 12:07:35;;;;;;;3.20;1.20;;;;;;;10.23;68.62;97245.61;67868;1276;1016121;-70
2024/02/07 12:10:37;;;;;;;3.60;1.20;;;;;;;10.05;69.48;97250.88;67934;1276;1016037;-70
2024/02/07 12:13:40;;;;;;;4.90;1.20;;;;;;;9.86;70.14;97250.90;67941;1276;1016155;-70
2024/02/07 12:16:42;;;;;;;3.40;1.10;;;;;;;9.84;70.06;97252.11;67861;1276;1016066;-70
2024/02/07 12:19:45;;;;;;;4.70;1.20;;;;;;;9.78;70.76;97259.82;67914;1276;1019037;-70
2024/02/07 12:22:47;;;;;;;2.50;1.00;;;;;;;9.87;70.18;97258.20;67952;1276;1016660;-69
2024/02/07 12:25:50;;;;;;;4.10;1.00;;;;;;;10.05;69.04;97252.70;67906;1276;1016682;-69
2024/02/07 12:28:52;;;;;;;3.90;0.90;;;;;;;10.00;68.83;97262.54;67877;1276;1016428;-70
2024/02/07 12:31:57;;;;;;;4.30;1.50;;;;;;;10.00;70.11;97268.80;67901;1276;1015730;-70
2024/02/07 12:35:01;;;;;;;3.50;0.90;;;;;;;9.98;69.76;97272.28;67889;1276;1016405;-70
2024/02/07 12:38:03;;;;;;;;;;;;;;;9.82;70.07;97286.70;67950;1276;1016438;-70
2024/02/07 12:41:06;;;;;;;5.20;1.30;;;;;;;9.66;70.97;97287.16;67902;1276;1015835;-70
2024/02/07 12:44:09;;;;;;;3.40;0.90;;;;;;;9.80;70.94;97276.69;67924;1276;1016320;-70
2024/02/07 12:47:13;;;;;;;7.90;1.40;;;;;;;9.76;69.80;97283.89;67886;1276;1016440;-70
2024/02/07 12:50:15;;;;;;;4.20;1.10;;;;;;;9.76;69.62;97280.90;67932;1276;1016411;-70
2024/02/07 12:53:18;;;;;;;5.70;1.40;;;;;;;9.67;69.93;97289.52;67933;1276;1016643;-69
2024/02/07 12:56:23;;;;;;;7.20;1.20;;;;;;;9.71;69.89;97283.25;67892;1276;1016373;-70
2024/02/07 12:59:26;;;;;;;7.90;1.60;;;;;;;9.65;69.88;97287.01;67932;1276;1018927;-69
2024/02/07 13:02:28;;;;;;;6.60;0.90;;;;;;;9.55;68.88;97293.41;67886;1276;1016174;-68
2024/02/07 13:05:31;;;;;;;7.60;1.70;;;;;;;9.44;70.21;97291.73;67872;1276;1018823;-70
2024/02/07 13:08:34;;;;;;;5.50;1.20;;;;;;;9.52;70.62;97296.33;67906;1276;1018884;-70
2024/02/07 13:11:36;;;;;;;7.30;1.70;;;;;;;9.35;71.31;97306.39;67877;1276;1016461;-70
2024/02/07 13:14:39;;;;;;;;;;;;;;;9.51;70.82;97306.30;67895;1276;1018711;-70
2024/02/07 13:17:42;;;;;;;15.30;2.90;;;;;;;9.50;70.40;97311.44;67918;1276;1016265;-70
2024/02/07 13:20:44;;;;;;;13.20;2.20;;;;;;;9.55;70.01;97307.02;67925;1252;1015966;-71
2024/02/07 13:23:47;;;;;;;9.00;2.30;;;;;;;9.54;70.42;97305.19;67871;1276;1016723;-70
2024/02/07 13:26:50;;;;;;;6.40;1.50;;;;;;;9.46;69.65;97311.61;67941;1276;1016133;-70
2024/02/07 13:29:52;;;;;;;7.80;1.30;;;;;;;9.45;70.11;97309.10;67875;1276;1015942;-70
2024/02/07 13:32:55;;;;;;;6.90;1.10;;;;;;;9.30;70.19;97307.09;67862;1276;1016400;-69
2024/02/07 13:35:58;;;;;;;8.80;1.60;;;;;;;9.31;70.75;97302.30;67952;1276;1016246;-69
2024/02/07 13:39:00;;;;;;;;;;;;;;;9.27;71.20;97312.61;67936;1276;1017278;-70
2024/02/07 13:42:03;;;;;;;7.50;1.40;;;;;;;9.46;70.12;97313.19;67863;1276;1016226;-70
2024/02/07 13:45:06;;;;;;;7.10;1.80;;;;;;;9.28;70.90;97323.89;67917;1276;1016415;-70
2024/02/07 13:48:08;;;;;;;11.70;2.00;;;;;;;9.26;71.58;97329.23;67943;1276;1016064;-70
2024/02/07 13:51:32;;;;;;;11.10;2.00;;;;;;;9.35;71.19;97330.77;67914;1276;1016759;-70
2024/02/07 13:54:34;;;;;;;;;;;;;;;9.38;71.37;97337.90;67932;1276;1015744;-70
2024/02/07 13:57:38;;;;;;;7.40;1.50;;;;;;;9.31;71.55;97342.23;67881;1276;1016585;-70
2024/02/07 14:00:40;;;;;;;7.90;1.40;;;;;;;9.28;72.45;97344.60;67920;1276;1016094;-70
2024/02/07 14:03:43;;;;;;;6.80;1.50;;;;;;;9.36;72.57;97352.17;67855;1276;1016543;-70
2024/02/07 14:06:45;;;;;;;;;;;;;;;9.34;72.80;97352.84;67948;1276;1017389;-71
2024/02/07 14:09:48;;;;;;;11.10;1.90;;;;;;;9.37;72.71;97347.55;67912;1276;1016740;-70
2024/02/07 14:12:51;;;;;;;;;;;;;;;9.42;73.60;97350.29;67878;1276;1017461;-70
2024/02/07 14:15:54;;;;;;;8.60;2.00;;;;;;;9.65;71.92;97350.70;67921;1276;1019252;-70
2024/02/07 14:18:57;;;;;;;9.30;2.00;;;;;;;9.64;72.12;97353.64;67861;1276;1016375;-68
2024/02/07 14:22:00;;;;;;;11.70;2.60;;;;;;;9.69;71.75;97352.55;67927;1276;1016503;-70
2024/02/07 14:25:03;;;;;;;;;;;;;;;9.73;71.09;97350.80;67924;1276;1016363;-70
2024/02/07 14:28:05;;;;;;;13.70;2.00;;;;;;;9.69;71.26;97346.22;67894;1276;1016483;-71
2024/02/07 14:31:08;;;;;;;;;;;;;;;9.55;71.21;97346.99;67937;1276;1016684;-71
2024/02/07 14:34:10;;;;;;;11.00;2.00;;;;;;;9.34;71.44;97345.20;67906;1276;1016297;-71
2024/02/07 14:37:13;;;;;;;10.20;2.40;;;;;;;9.29;72.49;97337.18;67875;1276;1015911;-70
2024/02/07 14:40:17;;;;;;;;;;;;;;;9.42;71.25;97333.91;67931;1276;1018984;-71
2024/02/07 14:43:20;;;;;;;11.00;1.90;;;;;;;9.37;71.52;97336.77;67951;1276;1016562;-70
2024/02/07 14:46:22;;;;;;;;;;;;;;;9.34;71.88;97344.48;67915;1276;1018472;-70
2024/02/07 14:49:27;;;;;;;15.10;3.00;;;;;;;9.33;71.66;97335.98;67872;1276;1017972;-70
2024/02/07 14:52:34;;;;;;;15.00;3.30;;;;;;;9.41;71.75;97332.41;67892;1276;1019509;-71
2024/02/07 14:55:41;;;;;;;15.10;3.50;;;;;;;9.33;71.89;97342.11;67912;1276;1017325;-70
2024/02/07 14:58:44;;;;;;;15.80;3.40;;;;;;;9.34;71.81;97346.40;67926;1276;1016501;-70
2024/02/07 15:01:47;;;;;;;18.50;4.30;;;;;;;9.31;72.12;97338.58;67884;1276;1016472;-70
2024/02/07 15:04:50;;;;;;;;;;;;;;;9.29;71.70;97334.55;67866;1276;1018917;-70
2024/02/07 15:07:53;;;;;;;21.00;3.90;;;;;;;9.31;71.15;97333.02;67899;1276;1018845;-70